sensor_id;sensor_type;location;lat;lon;timestamp;pressure;altitude;pressure_sealevel;temperature;humidity
29315;BME280;16320;53.954;9.506;2023-02-15T00:00:44;102796.03;;;3.35;100.00
29315;BME280;16320;53.954;9.506;2023-02-15T00:03:49;102797.72;;;3.30;100.00
29315;BME280;16320;53.954;9.506;2023-02-15T00:06:53;102796.78;;;3.23;100.00
29315;BME280;16320;53.954;9.506;2023-02-15T00:09:58;102792.34;;;3.16;100.00
29315;BME280;16320;53.954;9.506;2023-02-15T00:13:02;102793.91;;;3.03;100.00
29315;BME280;16320;53.954;9.506;2023-02-15T00:16:10;102792.16;;;2.99;100.00
29315;BME280;16320;53.954;9.506;2023-02-15T00:19:18;102789.53;;;2.98;100.00
29315;BME280;16320;53.954;9.506;2023-02-15T00:22:22;102772.16;;;2.93;100.00
29315;BME280;16320;53.954;9.506;2023-02-15T00:25:27;102772.91;;;2.85;100.00
29315;BME280;16320;53.954;9.506;2023-02-15T00:28:31;102772.81;;;2.77;100.00
29315;BME280;16320;53.954;9.506;2023-02-15T00:31:36;102763.19;;;2.68;100.00
29315;BME280;16320;53.954;9.506;2023-02-15T00:34:40;102768.25;;;2.61;100.00
29315;BME280;16320;53.954;9.506;2023-02-15T00:37:45;102767.41;;;2.60;100.00
29315;BME280;16320;53.954;9.506;2023-02-15T00:40:57;102758.69;;;2.58;100.00
29315;BME280;16320;53.954;9.506;2023-02-15T00:44:03;102763.84;;;2.55;100.00
29315;BME280;16320;53.954;9.506;2023-02-15T00:47:08;102756.06;;;2.55;100.00
29315;BME280;16320;53.954;9.506;2023-02-15T00:50:12;102756.16;;;2.63;100.00
29315;BME280;16320;53.954;9.506;2023-02-15T00:53:17;102758.78;;;2.64;100.00
29315;BME280;16320;53.954;9.506;2023-02-15T00:56:21;102754.47;;;2.65;100.00
29315;BME280;16320;53.954;9.506;2023-02-15T00:59:26;102750.84;;;2.53;100.00
29315;BME280;16320;53.954;9.506;2023-02-15T01:02:30;102751.50;;;2.38;100.00
29315;BME280;16320;53.954;9.506;2023-02-15T01:05:35;102748.00;;;2.36;100.00
29315;BME280;16320;53.954;9.506;2023-02-15T01:08:39;102745.28;;;2.27;100.00
29315;BME280;16320;53.954;9.506;2023-02-15T01:11:43;102741.75;;;2.24;100.00
29315;BME280;16320;53.954;9.506;2023-02-15T01:14:48;102744.28;;;2.19;100.00
29315;BME280;16320;53.954;9.506;2023-02-15T01:17:52;102731.19;;;2.10;100.00
29315;BME280;16320;53.954;9.506;2023-02-15T01:20:57;102723.25;;;2.00;100.00
29315;BME280;16320;53.954;9.506;2023-02-15T01:24:02;102720.59;;;1.96;100.00
29315;BME280;16320;53.954;9.506;2023-02-15T01:27:06;102718.00;;;1.96;100.00
29315;BME280;16320;53.954;9.506;2023-02-15T01:30:12;102718.03;;;1.97;100.00
29315;BME280;16320;53.954;9.506;2023-02-15T01:33:17;102709.50;;;2.05;100.00
29315;BME280;16320;53.954;9.506;2023-02-15T01:36:22;102702.69;;;2.13;100.00
29315;BME280;16320;53.954;9.506;2023-02-15T01:39:26;102716.63;;;2.18;100.00
29315;BME280;16320;53.954;9.506;2023-02-15T01:42:31;102705.38;;;2.17;100.00
29315;BME280;16320;53.954;9.506;2023-02-15T01:45:35;102702.69;;;2.13;100.00
29315;BME280;16320;53.954;9.506;2023-02-15T01:48:46;102699.41;;;2.23;100.00
29315;BME280;16320;53.954;9.506;2023-02-15T01:51:52;102706.38;;;2.27;100.00
29315;BME280;16320;53.954;9.506;2023-02-15T01:54:57;102699.41;;;2.23;100.00
29315;BME280;16320;53.954;9.506;2023-02-15T01:58:02;102695.03;;;2.20;100.00
29315;BME280;16320;53.954;9.506;2023-02-15T02:01:08;102700.97;;;2.12;100.00
29315;BME280;16320;53.954;9.506;2023-02-15T02:04:46;102692.09;;;1.97;100.00
29315;BME280;16320;53.954;9.506;2023-02-15T02:07:54;102694.53;;;1.87;100.00
29315;BME280;16320;53.954;9.506;2023-02-15T02:10:59;102691.91;;;1.85;100.00
29315;BME280;16320;53.954;9.506;2023-02-15T02:14:04;102688.47;;;1.86;100.00
29315;BME280;16320;53.954;9.506;2023-02-15T02:17:50;102693.75;;;1.92;100.00
29315;BME280;16320;53.954;9.506;2023-02-15T02:35:49;102678.91;;;1.82;100.00
29315;BME280;16320;53.954;9.506;2023-02-15T02:39:29;102674.56;;;1.81;100.00
29315;BME280;16320;53.954;9.506;2023-02-15T02:42:44;102683.25;;;1.83;100.00
29315;BME280;16320;53.954;9.506;2023-02-15T02:46:02;102670.25;;;1.81;100.00
29315;BME280;16320;53.954;9.506;2023-02-15T02:49:09;102673.66;;;1.77;100.00
29315;BME280;16320;53.954;9.506;2023-02-15T02:52:45;102667.59;;;1.77;100.00
29315;BME280;16320;53.954;9.506;2023-02-15T02:55:55;102656.22;;;1.69;100.00
29315;BME280;16320;53.954;9.506;2023-02-15T02:59:31;102655.34;;;1.67;100.00
29315;BME280;16320;53.954;9.506;2023-02-15T03:02:41;102638.94;;;1.66;100.00
29315;BME280;16320;53.954;9.506;2023-02-15T03:05:53;102641.41;;;1.58;100.00
29315;BME280;16320;53.954;9.506;2023-02-15T03:09:12;102643.31;;;1.70;100.00
29315;BME280;16320;53.954;9.506;2023-02-15T03:12:29;102649.47;;;1.78;100.00
29315;BME280;16320;53.954;9.506;2023-02-15T03:15:39;102640.81;;;1.76;100.00
29315;BME280;16320;53.954;9.506;2023-02-15T03:19:20;102645.97;;;1.75;100.00
29315;BME280;16320;53.954;9.506;2023-02-15T03:22:36;102639.03;;;1.74;100.00
29315;BME280;16320;53.954;9.506;2023-02-15T03:25:49;102646.25;;;1.93;100.00
29315;BME280;16320;53.954;9.506;2023-02-15T03:28:57;102650.78;;;2.07;100.00
29315;BME280;16320;53.954;9.506;2023-02-15T03:32:05;102656.81;;;2.07;100.00
29315;BME280;16320;53.954;9.506;2023-02-15T03:35:11;102655.13;;;2.09;100.00
29315;BME280;16320;53.954;9.506;2023-02-15T03:38:22;102654.25;;;2.07;100.00
29315;BME280;16320;53.954;9.506;2023-02-15T03:41:35;102651.44;;;1.95;100.00
29315;BME280;16320;53.954;9.506;2023-02-15T03:48:05;102636.75;;;1.92;100.00
29315;BME280;16320;53.954;9.506;2023-02-15T03:51:16;102640.13;;;1.88;100.00
29315;BME280;16320;53.954;9.506;2023-02-15T03:54:41;102645.19;;;1.79;100.00
29315;BME280;16320;53.954;9.506;2023-02-15T03:57:46;102649.66;;;1.89;100.00
29315;BME280;16320;53.954;9.506;2023-02-15T04:04:55;102643.16;;;1.62;100.00
29315;BME280;16320;53.954;9.506;2023-02-15T04:08:00;102638.69;;;1.52;100.00
29315;BME280;16320;53.954;9.506;2023-02-15T04:11:04;102631.78;;;1.53;100.00
29315;BME280;16320;53.954;9.506;2023-02-15T04:14:09;102633.59;;;1.57;100.00
29315;BME280;16320;53.954;9.506;2023-02-15T04:17:32;102643.28;;;1.69;100.00
29315;BME280;16320;53.954;9.506;2023-02-15T04:20:36;102642.44;;;1.70;100.00
29315;BME280;16320;53.954;9.506;2023-02-15T04:23:59;102634.78;;;1.76;100.00
29315;BME280;16320;53.954;9.506;2023-02-15T04:27:21;102646.13;;;1.84;100.00
29315;BME280;16320;53.954;9.506;2023-02-15T04:30:26;102634.81;;;1.79;100.00
29315;BME280;16320;53.954;9.506;2023-02-15T04:33:30;102625.22;;;1.73;100.00
29315;BME280;16320;53.954;9.506;2023-02-15T04:36:35;102619.91;;;1.65;100.00
29315;BME280;16320;53.954;9.506;2023-02-15T04:39:40;102621.72;;;1.70;100.00
29315;BME280;16320;53.954;9.506;2023-02-15T04:42:44;102619.13;;;1.70;100.00
29315;BME280;16320;53.954;9.506;2023-02-15T04:45:51;102616.53;;;1.70;100.00
29315;BME280;16320;53.954;9.506;2023-02-15T04:48:56;102613.75;;;1.59;100.00
29315;BME280;16320;53.954;9.506;2023-02-15T04:52:00;102623.16;;;1.52;100.00
29315;BME280;16320;53.954;9.506;2023-02-15T04:55:05;102610.31;;;1.58;100.00
29315;BME280;16320;53.954;9.506;2023-02-15T04:58:10;102613.59;;;1.48;100.00
29315;BME280;16320;53.954;9.506;2023-02-15T05:01:14;102613.53;;;1.43;100.00
29315;BME280;16320;53.954;9.506;2023-02-15T05:04:19;102618.84;;;1.51;100.00
29315;BME280;16320;53.954;9.506;2023-02-15T05:07:23;102620.44;;;1.46;100.00
29315;BME280;16320;53.954;9.506;2023-02-15T05:10:27;102630.94;;;1.52;100.00
29315;BME280;16320;53.954;9.506;2023-02-15T05:13:31;102630.13;;;1.56;100.00
29315;BME280;16320;53.954;9.506;2023-02-15T05:16:36;102627.56;;;1.56;100.00
29315;BME280;16320;53.954;9.506;2023-02-15T05:19:40;102627.59;;;1.59;100.00
29315;BME280;16320;53.954;9.506;2023-02-15T05:22:44;102635.38;;;1.59;100.00
29315;BME280;16320;53.954;9.506;2023-02-15T05:25:50;102628.50;;;1.61;100.00
29315;BME280;16320;53.954;9.506;2023-02-15T05:29:13;102631.09;;;1.61;100.00
29315;BME280;16320;53.954;9.506;2023-02-15T05:32:17;102633.50;;;1.51;100.00
29315;BME280;16320;53.954;9.506;2023-02-15T05:35:22;102630.09;;;1.53;100.00
29315;BME280;16320;53.954;9.506;2023-02-15T05:38:26;102641.34;;;1.55;100.00
29315;BME280;16320;53.954;9.506;2023-02-15T05:41:31;102638.72;;;1.54;100.00
29315;BME280;16320;53.954;9.506;2023-02-15T05:44:35;102638.00;;;1.62;100.00
29315;BME280;16320;53.954;9.506;2023-02-15T05:47:40;102635.41;;;1.61;100.00
29315;BME280;16320;53.954;9.506;2023-02-15T05:50:45;102630.94;;;1.52;100.00
29315;BME280;16320;53.954;9.506;2023-02-15T05:53:49;102631.84;;;1.56;100.00
29315;BME280;16320;53.954;9.506;2023-02-15T05:56:53;102638.00;;;1.64;100.00
29315;BME280;16320;53.954;9.506;2023-02-15T05:59:58;102639.75;;;1.63;100.00
29315;BME280;16320;53.954;9.506;2023-02-15T06:03:02;102629.22;;;1.54;100.00
29315;BME280;16320;53.954;9.506;2023-02-15T06:06:07;102639.56;;;1.51;100.00
29315;BME280;16320;53.954;9.506;2023-02-15T06:09:12;102635.03;;;1.39;100.00
29315;BME280;16320;53.954;9.506;2023-02-15T06:12:17;102638.53;;;1.43;100.00
29315;BME280;16320;53.954;9.506;2023-02-15T06:15:21;102646.47;;;1.52;100.00
29315;BME280;16320;53.954;9.506;2023-02-15T06:18:26;102653.44;;;1.55;100.00
29315;BME280;16320;53.954;9.506;2023-02-15T06:21:30;102645.75;;;1.61;100.00
29315;BME280;16320;53.954;9.506;2023-02-15T06:24:35;102651.66;;;1.52;100.00
29315;BME280;16320;53.954;9.506;2023-02-15T06:27:43;102653.41;;;1.53;100.00
29315;BME280;16320;53.954;9.506;2023-02-15T06:30:47;102656.94;;;1.58;100.00
29315;BME280;16320;53.954;9.506;2023-02-15T06:33:51;102659.44;;;1.54;100.00
29315;BME280;16320;53.954;9.506;2023-02-15T06:36:56;102664.59;;;1.52;100.00
29315;BME280;16320;53.954;9.506;2023-02-15T06:40:00;102660.28;;;1.53;100.00
29315;BME280;16320;53.954;9.506;2023-02-15T06:43:07;102664.47;;;1.46;100.00
29315;BME280;16320;53.954;9.506;2023-02-15T06:46:11;102661.81;;;1.40;100.00
29315;BME280;16320;53.954;9.506;2023-02-15T06:49:16;102668.59;;;1.35;100.00
29315;BME280;16320;53.954;9.506;2023-02-15T06:52:20;102654.81;;;1.36;100.00
29315;BME280;16320;53.954;9.506;2023-02-15T06:55:25;102654.88;;;1.39;100.00
29315;BME280;16320;53.954;9.506;2023-02-15T06:58:30;102649.81;;;1.45;100.00
29315;BME280;16320;53.954;9.506;2023-02-15T07:01:34;102648.09;;;1.47;100.00
29315;BME280;16320;53.954;9.506;2023-02-15T07:04:41;102657.72;;;1.54;100.00
29315;BME280;16320;53.954;9.506;2023-02-15T07:07:45;102653.38;;;1.52;100.00
29315;BME280;16320;53.954;9.506;2023-02-15T07:10:52;102653.47;;;1.56;100.00
29315;BME280;16320;53.954;9.506;2023-02-15T07:13:56;102646.31;;;1.44;100.00
29315;BME280;16320;53.954;9.506;2023-02-15T07:17:01;102639.34;;;1.39;100.00
29315;BME280;16320;53.954;9.506;2023-02-15T07:20:42;102641.13;;;1.43;100.00
29315;BME280;16320;53.954;9.506;2023-02-15T07:23:41;102625.63;;;1.46;100.00
29315;BME280;16320;53.954;9.506;2023-02-15T07:26:45;102621.97;;;1.32;100.00
29315;BME280;16320;53.954;9.506;2023-02-15T07:29:49;102620.34;;;1.38;100.00
29315;BME280;16320;53.954;9.506;2023-02-15T07:32:57;102626.56;;;1.48;100.00
29315;BME280;16320;53.954;9.506;2023-02-15T07:36:20;102615.28;;;1.46;100.00
29315;BME280;16320;53.954;9.506;2023-02-15T07:39:25;102624.72;;;1.42;100.00
29315;BME280;16320;53.954;9.506;2023-02-15T07:42:30;102620.44;;;1.46;100.00
29315;BME280;16320;53.954;9.506;2023-02-15T07:45:35;102619.63;;;1.47;100.00
29315;BME280;16320;53.954;9.506;2023-02-15T07:48:41;102613.66;;;1.51;100.00
29315;BME280;16320;53.954;9.506;2023-02-15T07:51:46;102613.72;;;1.57;100.00
29315;BME280;16320;53.954;9.506;2023-02-15T07:54:50;102605.06;;;1.55;100.00
29315;BME280;16320;53.954;9.506;2023-02-15T07:57:54;102616.41;;;1.62;100.00
29315;BME280;16320;53.954;9.506;2023-02-15T08:00:59;102618.28;;;1.71;100.00
29315;BME280;16320;53.954;9.506;2023-02-15T08:04:07;102609.84;;;1.84;100.00
29315;BME280;16320;53.954;9.506;2023-02-15T08:07:13;102589.91;;;1.80;100.00
29315;BME280;16320;53.954;9.506;2023-02-15T08:10:18;102602.94;;;1.86;100.00
29315;BME280;16320;53.954;9.506;2023-02-15T08:13:48;102601.28;;;1.90;100.00
29315;BME280;16320;53.954;9.506;2023-02-15T08:16:59;102598.84;;;2.00;100.00
29315;BME280;16320;53.954;9.506;2023-02-15T08:20:09;102601.47;;;2.02;100.00
29315;BME280;16320;53.954;9.506;2023-02-15T08:23:13;102602.34;;;2.04;100.00
29315;BME280;16320;53.954;9.506;2023-02-15T08:26:18;102609.38;;;2.13;100.00
29315;BME280;16320;53.954;9.506;2023-02-15T08:29:25;102602.56;;;2.19;100.00
29315;BME280;16320;53.954;9.506;2023-02-15T08:32:30;102612.97;;;2.23;100.00
29315;BME280;16320;53.954;9.506;2023-02-15T08:35:35;102614.81;;;2.31;100.00
29315;BME280;16320;53.954;9.506;2023-02-15T08:38:41;102618.50;;;2.49;100.00
29315;BME280;16320;53.954;9.506;2023-02-15T08:41:47;102615.91;;;2.49;100.00
29315;BME280;16320;53.954;9.506;2023-02-15T08:44:51;102610.78;;;2.56;100.00
29315;BME280;16320;53.954;9.506;2023-02-15T08:47:56;102606.56;;;2.63;100.00
29315;BME280;16320;53.954;9.506;2023-02-15T08:51:10;102600.50;;;2.64;100.00
29315;BME280;16320;53.954;9.506;2023-02-15T08:54:18;102596.16;;;2.62;100.00
29315;BME280;16320;53.954;9.506;2023-02-15T08:57:22;102594.47;;;2.65;100.00
29315;BME280;16320;53.954;9.506;2023-02-15T09:00:26;102592.78;;;2.70;100.00
29315;BME280;16320;53.954;9.506;2023-02-15T09:03:32;102610.13;;;2.71;100.00
29315;BME280;16320;53.954;9.506;2023-02-15T09:06:38;102604.94;;;2.71;100.00
29315;BME280;16320;53.954;9.506;2023-02-15T09:09:44;102617.03;;;2.72;100.00
29315;BME280;16320;53.954;9.506;2023-02-15T09:12:49;102609.22;;;2.71;100.00
29315;BME280;16320;53.954;9.506;2023-02-15T09:16:01;102604.94;;;2.71;100.00
29315;BME280;16320;53.954;9.506;2023-02-15T09:19:06;102603.22;;;2.73;100.00
29315;BME280;16320;53.954;9.506;2023-02-15T09:22:11;102613.63;;;2.77;100.00
29315;BME280;16320;53.954;9.506;2023-02-15T09:25:15;102605.00;;;2.79;100.00
29315;BME280;16320;53.954;9.506;2023-02-15T09:28:19;102605.06;;;2.87;100.00
29315;BME280;16320;53.954;9.506;2023-02-15T09:31:28;102603.31;;;2.83;100.00
29315;BME280;16320;53.954;9.506;2023-02-15T09:34:32;102605.06;;;2.85;100.00
29315;BME280;16320;53.954;9.506;2023-02-15T09:37:38;102601.69;;;2.91;100.00
29315;BME280;16320;53.954;9.506;2023-02-15T09:40:56;102599.91;;;2.90;100.00
29315;BME280;16320;53.954;9.506;2023-02-15T09:47:27;102609.44;;;2.89;100.00
29315;BME280;16320;53.954;9.506;2023-02-15T10:13:15;102608.13;;;3.36;100.00
29315;BME280;16320;53.954;9.506;2023-02-15T10:16:56;102613.31;;;3.32;100.00
29315;BME280;16320;53.954;9.506;2023-02-15T10:20:33;102621.09;;;3.35;100.00
29315;BME280;16320;53.954;9.506;2023-02-15T10:27:49;102619.38;;;3.32;100.00
29315;BME280;16320;53.954;9.506;2023-02-15T10:34:50;102614.22;;;3.35;100.00
29315;BME280;16320;53.954;9.506;2023-02-15T10:48:41;102603.91;;;3.47;100.00
29315;BME280;16320;53.954;9.506;2023-02-15T10:52:05;102601.34;;;3.52;100.00
29315;BME280;16320;53.954;9.506;2023-02-15T10:58:55;102610.88;;;3.52;100.00
29315;BME280;16320;53.954;9.506;2023-02-15T11:09:09;102590.13;;;3.58;100.00
29315;BME280;16320;53.954;9.506;2023-02-15T11:12:18;102575.44;;;3.63;100.00
29315;BME280;16320;53.954;9.506;2023-02-15T11:15:44;102581.53;;;3.68;100.00
29315;BME280;16320;53.954;9.506;2023-02-15T11:18:56;102578.97;;;3.71;100.00
29315;BME280;16320;53.954;9.506;2023-02-15T11:22:05;102569.44;;;3.73;100.00
29315;BME280;16320;53.954;9.506;2023-02-15T11:25:31;102566.94;;;3.87;100.00
29315;BME280;16320;53.954;9.506;2023-02-15T11:29:13;102562.59;;;3.88;100.00
29315;BME280;16320;53.954;9.506;2023-02-15T11:32:39;102563.47;;;3.90;100.00
29315;BME280;16320;53.954;9.506;2023-02-15T11:35:56;102559.16;;;3.89;100.00
29315;BME280;16320;53.954;9.506;2023-02-15T11:39:16;102540.09;;;3.93;100.00
29315;BME280;16320;53.954;9.506;2023-02-15T11:42:24;102554.00;;;4.01;100.00
29315;BME280;16320;53.954;9.506;2023-02-15T11:45:32;102544.50;;;4.03;100.00
29315;BME280;16320;53.954;9.506;2023-02-15T11:48:38;102534.94;;;4.02;100.00
29315;BME280;16320;53.954;9.506;2023-02-15T11:51:43;102536.69;;;4.06;100.00
29315;BME280;16320;53.954;9.506;2023-02-15T11:54:50;102531.50;;;4.12;100.00
29315;BME280;16320;53.954;9.506;2023-02-15T11:58:08;102525.44;;;4.09;100.00
29315;BME280;16320;53.954;9.506;2023-02-15T12:01:36;102525.47;;;4.16;100.00
29315;BME280;16320;53.954;9.506;2023-02-15T12:04:48;102517.66;;;4.12;100.00
29315;BME280;16320;53.954;9.506;2023-02-15T12:08:02;102508.97;;;4.17;100.00
29315;BME280;16320;53.954;9.506;2023-02-15T12:11:17;102496.91;;;4.24;100.00
29315;BME280;16320;53.954;9.506;2023-02-15T12:14:22;102484.72;;;4.15;100.00
29315;BME280;16320;53.954;9.506;2023-02-15T12:17:52;102466.50;;;4.15;100.00
29315;BME280;16320;53.954;9.506;2023-02-15T12:21:03;102459.56;;;4.20;100.00
29315;BME280;16320;53.954;9.506;2023-02-15T12:24:28;102463.94;;;4.28;100.00
29315;BME280;16320;53.954;9.506;2023-02-15T12:27:34;102459.63;;;4.33;100.00
29315;BME280;16320;53.954;9.506;2023-02-15T12:30:42;102450.94;;;4.29;100.00
29315;BME280;16320;53.954;9.506;2023-02-15T12:33:47;102450.06;;;4.32;100.00
29315;BME280;16320;53.954;9.506;2023-02-15T12:37:00;102437.94;;;4.31;100.00
29315;BME280;16320;53.954;9.506;2023-02-15T12:40:28;102430.97;;;4.27;100.00
29315;BME280;16320;53.954;9.506;2023-02-15T12:43:37;102431.00;;;4.33;100.00
29315;BME280;16320;53.954;9.506;2023-02-15T12:46:42;102419.72;;;4.40;100.00
29315;BME280;16320;53.954;9.506;2023-02-15T12:50:23;102418.88;;;4.47;100.00
29315;BME280;16320;53.954;9.506;2023-02-15T12:53:33;102414.53;;;4.40;100.00
29315;BME280;16320;53.954;9.506;2023-02-15T12:56:38;102410.19;;;4.39;100.00
29315;BME280;16320;53.954;9.506;2023-02-15T13:03:23;102410.19;;;4.48;100.00
29315;BME280;16320;53.954;9.506;2023-02-15T13:06:32;102407.59;;;4.47;100.00
29315;BME280;16320;53.954;9.506;2023-02-15T13:09:39;102407.59;;;4.40;100.00
29315;BME280;16320;53.954;9.506;2023-02-15T13:12:46;102405.84;;;4.35;100.00
29315;BME280;16320;53.954;9.506;2023-02-15T13:15:56;102402.38;;;4.33;100.00
29315;BME280;16320;53.954;9.506;2023-02-15T13:19:10;102400.66;;;4.47;100.00
29315;BME280;16320;53.954;9.506;2023-02-15T13:22:41;102383.31;;;4.49;100.00
29315;BME280;16320;53.954;9.506;2023-02-15T13:25:47;102375.50;;;4.55;100.00
29315;BME280;16320;53.954;9.506;2023-02-15T13:28:57;102370.31;;;4.52;100.00
29315;BME280;16320;53.954;9.506;2023-02-15T13:32:30;102369.44;;;4.55;100.00
29315;BME280;16320;53.954;9.506;2023-02-15T13:35:46;102358.16;;;4.57;100.00
29315;BME280;16320;53.954;9.506;2023-02-15T13:42:29;102356.41;;;4.69;100.00
29315;BME280;16320;53.954;9.506;2023-02-15T13:49:20;102345.13;;;4.74;100.00
29315;BME280;16320;53.954;9.506;2023-02-15T13:52:28;102346.00;;;4.75;100.00
29315;BME280;16320;53.954;9.506;2023-02-15T13:55:54;102335.56;;;4.81;100.00
29315;BME280;16320;53.954;9.506;2023-02-15T14:05:53;102313.00;;;4.80;100.00
29315;BME280;16320;53.954;9.506;2023-02-15T14:19:37;102293.94;;;4.66;100.00
29315;BME280;16320;53.954;9.506;2023-02-15T14:23:21;102292.22;;;4.65;100.00
29315;BME280;16320;53.954;9.506;2023-02-15T14:30:25;102293.09;;;4.64;100.00
29315;BME280;16320;53.954;9.506;2023-02-15T14:33:39;102284.38;;;4.66;100.00
29315;BME280;16320;53.954;9.506;2023-02-15T14:36:51;102280.03;;;4.77;100.00
29315;BME280;16320;53.954;9.506;2023-02-15T14:47:48;102274.88;;;4.57;100.00
29315;BME280;16320;53.954;9.506;2023-02-15T14:50:57;102278.31;;;4.56;100.00
29315;BME280;16320;53.954;9.506;2023-02-15T14:54:01;102276.63;;;4.60;100.00
29315;BME280;16320;53.954;9.506;2023-02-15T15:00:37;102281.81;;;4.62;100.00
29315;BME280;16320;53.954;9.506;2023-02-15T15:03:51;102284.41;;;4.62;100.00
29315;BME280;16320;53.954;9.506;2023-02-15T15:10:49;102274.88;;;4.54;100.00
29315;BME280;16320;53.954;9.506;2023-02-15T15:14:00;102276.63;;;4.55;100.00
29315;BME280;16320;53.954;9.506;2023-02-15T15:17:06;102269.66;;;4.51;100.00
29315;BME280;16320;53.954;9.506;2023-02-15T15:20:19;102272.28;;;4.48;100.00
29315;BME280;16320;53.954;9.506;2023-02-15T15:23:43;102271.41;;;4.43;100.00
29315;BME280;16320;53.954;9.506;2023-02-15T15:26:48;102270.56;;;4.46;100.00
29315;BME280;16320;53.954;9.506;2023-02-15T15:29:54;102281.81;;;4.49;100.00
29315;BME280;16320;53.954;9.506;2023-02-15T15:33:37;102266.22;;;4.52;100.00
29315;BME280;16320;53.954;9.506;2023-02-15T15:40:19;102252.34;;;4.46;100.00
29315;BME280;16320;53.954;9.506;2023-02-15T15:54:23;102239.34;;;4.46;100.00
29315;BME280;16320;53.954;9.506;2023-02-15T15:57:38;102230.69;;;4.36;100.00
29315;BME280;16320;53.954;9.506;2023-02-15T16:01:08;102215.94;;;4.32;100.00
29315;BME280;16320;53.954;9.506;2023-02-15T16:04:27;102218.53;;;4.26;100.00
29315;BME280;16320;53.954;9.506;2023-02-15T16:07:33;102202.06;;;4.30;100.00
29315;BME280;16320;53.954;9.506;2023-02-15T16:10:38;102189.94;;;4.26;100.00
29315;BME280;16320;53.954;9.506;2023-02-15T16:13:44;102184.72;;;4.29;100.00
29315;BME280;16320;53.954;9.506;2023-02-15T16:16:52;102180.41;;;4.17;100.00
29315;BME280;16320;53.954;9.506;2023-02-15T16:20:15;102176.97;;;4.12;100.00
29315;BME280;16320;53.954;9.506;2023-02-15T16:33:36;102171.75;;;4.02;100.00
29315;BME280;16320;53.954;9.506;2023-02-15T16:36:41;102168.31;;;3.91;100.00
29315;BME280;16320;53.954;9.506;2023-02-15T16:39:46;102160.50;;;3.93;100.00
29315;BME280;16320;53.954;9.506;2023-02-15T16:42:55;102162.25;;;3.91;100.00
29315;BME280;16320;53.954;9.506;2023-02-15T16:46:11;102158.78;;;3.85;100.00
29315;BME280;16320;53.954;9.506;2023-02-15T16:49:23;102146.66;;;3.84;100.00
29315;BME280;16320;53.954;9.506;2023-02-15T16:52:29;102144.94;;;3.80;100.00
29315;BME280;16320;53.954;9.506;2023-02-15T16:55:41;102146.69;;;3.72;100.00
29315;BME280;16320;53.954;9.506;2023-02-15T16:58:50;102146.69;;;3.69;100.00
29315;BME280;16320;53.954;9.506;2023-02-15T17:01:57;102158.78;;;3.65;100.00
29315;BME280;16320;53.954;9.506;2023-02-15T17:11:41;102170.06;;;3.43;100.00
29315;BME280;16320;53.954;9.506;2023-02-15T17:14:46;102172.66;;;3.41;100.00
29315;BME280;16320;53.954;9.506;2023-02-15T17:17:51;102176.06;;;3.31;100.00
29315;BME280;16320;53.954;9.506;2023-02-15T17:20:59;102168.28;;;3.31;100.00
29315;BME280;16320;53.954;9.506;2023-02-15T17:24:05;102165.69;;;3.22;100.00
29315;BME280;16320;53.954;9.506;2023-02-15T17:27:23;102163.06;;;3.11;100.00
29315;BME280;16320;53.954;9.506;2023-02-15T17:30:34;102153.53;;;3.08;100.00
29315;BME280;16320;53.954;9.506;2023-02-15T17:33:42;102145.75;;;3.13;100.00
29315;BME280;16320;53.954;9.506;2023-02-15T17:36:59;102150.09;;;3.16;100.00
29315;BME280;16320;53.954;9.506;2023-02-15T17:40:30;102141.41;;;3.17;100.00
29315;BME280;16320;53.954;9.506;2023-02-15T17:43:35;102141.44;;;3.23;100.00
29315;BME280;16320;53.954;9.506;2023-02-15T17:46:40;102139.72;;;3.31;100.00
29315;BME280;16320;53.954;9.506;2023-02-15T17:49:46;102144.03;;;3.44;100.00
29315;BME280;16320;53.954;9.506;2023-02-15T17:52:55;102138.88;;;3.60;100.00
29315;BME280;16320;53.954;9.506;2023-02-15T17:56:00;102143.19;;;3.70;100.00
29315;BME280;16320;53.954;9.506;2023-02-15T17:59:13;102137.13;;;3.79;100.00
29315;BME280;16320;53.954;9.506;2023-02-15T18:02:18;102138.84;;;3.86;100.00
29315;BME280;16320;53.954;9.506;2023-02-15T18:05:41;102141.44;;;3.95;100.00
29315;BME280;16320;53.954;9.506;2023-02-15T18:09:05;102151.00;;;3.92;100.00
29315;BME280;16320;53.954;9.506;2023-02-15T18:12:32;102146.66;;;4.03;100.00
29315;BME280;16320;53.954;9.506;2023-02-15T18:15:37;102157.91;;;4.08;100.00
29315;BME280;16320;53.954;9.506;2023-02-15T18:18:43;102154.41;;;4.11;100.00
29315;BME280;16320;53.954;9.506;2023-02-15T18:21:48;102157.06;;;4.03;100.00
29315;BME280;16320;53.954;9.506;2023-02-15T18:24:55;102155.31;;;4.08;100.00
29315;BME280;16320;53.954;9.506;2023-02-15T18:27:59;102151.81;;;4.06;100.00
29315;BME280;16320;53.954;9.506;2023-02-15T18:31:04;102152.69;;;4.13;100.00
29315;BME280;16320;53.954;9.506;2023-02-15T18:34:37;102150.09;;;4.11;100.00
29315;BME280;16320;53.954;9.506;2023-02-15T18:37:43;102154.41;;;4.06;100.00
29315;BME280;16320;53.954;9.506;2023-02-15T18:40:47;102157.91;;;4.07;100.00
29315;BME280;16320;53.954;9.506;2023-02-15T18:43:53;102157.00;;;4.18;100.00
29315;BME280;16320;53.954;9.506;2023-02-15T18:46:58;102170.88;;;4.17;100.00
29315;BME280;16320;53.954;9.506;2023-02-15T18:50:05;102174.34;;;4.10;100.00
29315;BME280;16320;53.954;9.506;2023-02-15T18:53:18;102165.69;;;4.11;100.00
29315;BME280;16320;53.954;9.506;2023-02-15T18:56:23;102162.22;;;4.15;100.00
29315;BME280;16320;53.954;9.506;2023-02-15T18:59:28;102165.69;;;4.11;100.00
29315;BME280;16320;53.954;9.506;2023-02-15T19:02:34;102176.09;;;4.02;100.00
29315;BME280;16320;53.954;9.506;2023-02-15T19:05:44;102180.44;;;4.03;100.00
29315;BME280;16320;53.954;9.506;2023-02-15T19:08:50;102165.72;;;3.99;100.00